createdAt,value
2022-09-15T00:01:01.240Z,99743.38
2022-09-15T00:03:28.584Z,99745.41
2022-09-15T00:05:55.825Z,99740.00
2022-09-15T00:08:23.832Z,99735.00
2022-09-15T00:11:18.912Z,99739.25
2022-09-15T00:13:46.446Z,99729.84
2022-09-15T00:16:15.400Z,99729.06
2022-09-15T00:18:42.883Z,99731.09
2022-09-15T00:21:13.027Z,99725.16
2022-09-15T00:23:40.271Z,99719.75
2022-09-15T00:26:12.756Z,99720.50
2022-09-15T00:28:40.555Z,99723.16
2022-09-15T00:31:10.147Z,99729.41
2022-09-15T00:33:37.628Z,99729.72
2022-09-15T00:36:06.879Z,99734.06
2022-09-15T00:38:34.769Z,99733.97
2022-09-15T00:41:02.850Z,99738.94
2022-09-15T00:43:53.546Z,99738.06
2022-09-15T00:46:23.831Z,99744.97
2022-09-15T00:49:08.869Z,99737.84
2022-09-15T00:51:52.829Z,99740.06
2022-09-15T00:54:26.642Z,99734.13
2022-09-15T00:56:55.421Z,99738.81
2022-09-15T00:59:25.739Z,99738.16
2022-09-15T01:02:01.421Z,99736.69
2022-09-15T01:04:28.716Z,99736.03
2022-09-15T01:07:00.272Z,99730.31
2022-09-15T01:09:37.768Z,99729.22
2022-09-15T01:12:05.260Z,99732.28
2022-09-15T01:14:32.449Z,99730.72
2022-09-15T01:17:07.220Z,99731.00
2022-09-15T01:20:00.216Z,99738.75
2022-09-15T01:22:33.615Z,99742.56
2022-09-15T01:25:08.730Z,99743.59
2022-09-15T01:28:09.985Z,99743.91
2022-09-15T01:30:41.435Z,99739.94
2022-09-15T01:33:22.412Z,99746.75
2022-09-15T01:35:56.757Z,99748.78
2022-09-15T01:39:02.642Z,99743.56
2022-09-15T01:41:37.896Z,99736.25
2022-09-15T01:44:24.499Z,99747.63
2022-09-15T01:46:57.090Z,99742.13
2022-09-15T01:49:29.194Z,99744.44
2022-09-15T01:51:56.391Z,99744.44
2022-09-15T01:54:28.708Z,99736.50
2022-09-15T01:56:56.892Z,99738.50
2022-09-15T01:59:24.190Z,99732.38
2022-09-15T02:02:00.583Z,99724.06
2022-09-15T02:04:33.689Z,99724.50
2022-09-15T02:07:20.571Z,99730.72
2022-09-15T02:10:05.535Z,99730.19
2022-09-15T02:12:50.681Z,99728.69
2022-09-15T02:15:33.488Z,99740.88
2022-09-15T02:18:02.928Z,99728.03
2022-09-15T02:20:48.505Z,99725.94
2022-09-15T02:23:21.712Z,99725.09
2022-09-15T02:25:51.692Z,99716.09
2022-09-15T02:28:21.817Z,99743.50
2022-09-15T02:30:49.937Z,99749.56
2022-09-15T02:33:19.785Z,99738.97
2022-09-15T02:35:47.517Z,99735.78
2022-09-15T02:38:15.215Z,99739.63
2022-09-15T02:40:44.437Z,99744.41
2022-09-15T02:43:13.064Z,99740.19
2022-09-15T02:45:40.479Z,99741.16
2022-09-15T02:48:09.791Z,99745.75
2022-09-15T02:50:37.372Z,99740.22
2022-09-15T02:53:04.991Z,99739.31
2022-09-15T02:55:32.439Z,99734.94
2022-09-15T02:57:59.679Z,99743.59
2022-09-15T03:00:28.366Z,99750.13
2022-09-15T03:02:56.329Z,99745.16
2022-09-15T03:05:30.583Z,99747.56
2022-09-15T03:07:58.058Z,99744.56
2022-09-15T03:10:26.098Z,99737.84
2022-09-15T03:12:54.233Z,99742.78
2022-09-15T03:15:23.926Z,99736.19
2022-09-15T03:17:52.079Z,99736.28
2022-09-15T03:20:21.579Z,99739.09
2022-09-15T03:22:49.566Z,99737.44
2022-09-15T03:25:17.516Z,99737.63
2022-09-15T03:27:44.687Z,99731.69
2022-09-15T03:30:15.693Z,99743.50
2022-09-15T03:32:42.907Z,99749.16
2022-09-15T03:35:10.318Z,99744.94
2022-09-15T03:37:37.517Z,99747.59
2022-09-15T03:40:05.437Z,99746.81
2022-09-15T03:42:32.777Z,99754.09
2022-09-15T03:44:59.946Z,99747.31
2022-09-15T03:47:27.121Z,99742.22
2022-09-15T03:49:55.336Z,99751.25
2022-09-15T03:52:22.596Z,99742.59
2022-09-15T03:54:49.840Z,99738.59
2022-09-15T03:57:17.106Z,99749.28
2022-09-15T03:59:44.366Z,99745.88
2022-09-15T04:02:11.665Z,99736.38
2022-09-15T04:04:38.917Z,99748.63
2022-09-15T04:07:06.176Z,99745.22
2022-09-15T04:09:33.394Z,99752.31
2022-09-15T04:12:00.639Z,99747.31
2022-09-15T04:14:27.854Z,99735.69
2022-09-15T04:16:55.012Z,99739.19
2022-09-15T04:19:22.224Z,99741.72
2022-09-15T04:21:49.381Z,99742.75
2022-09-15T04:24:17.211Z,99754.47
2022-09-15T04:26:45.194Z,99748.44
2022-09-15T04:29:14.792Z,99753.41
2022-09-15T04:31:42.257Z,99737.69
2022-09-15T04:34:10.128Z,99739.66
2022-09-15T04:36:37.336Z,99750.22
2022-09-15T04:39:06.089Z,99742.97
2022-09-15T04:41:33.689Z,99739.56
2022-09-15T04:44:00.868Z,99738.22
2022-09-15T04:46:28.155Z,99740.97
2022-09-15T04:48:56.476Z,99738.22
2022-09-15T04:51:24.532Z,99737.38
2022-09-15T04:53:52.299Z,99734.47
2022-09-15T04:56:22.620Z,99737.56
2022-09-15T04:59:03.141Z,99742.41
2022-09-15T05:01:33.851Z,99744.09
2022-09-15T05:04:04.166Z,99744.00
2022-09-15T05:06:33.075Z,99744.66
2022-09-15T05:09:00.347Z,99745.81
2022-09-15T05:11:28.406Z,99740.50
2022-09-15T05:13:55.766Z,99743.34
2022-09-15T05:16:24.630Z,99739.34
2022-09-15T05:18:53.140Z,99738.38
2022-09-15T05:21:21.979Z,99734.81
2022-09-15T05:23:50.247Z,99738.19
2022-09-15T05:26:19.980Z,99740.09
2022-09-15T05:28:47.192Z,99740.97
2022-09-15T05:31:23.779Z,99733.09
2022-09-15T05:33:53.238Z,99737.44
2022-09-15T05:36:23.842Z,99742.13
2022-09-15T05:38:51.666Z,99737.09
2022-09-15T05:41:19.545Z,99749.06
2022-09-15T05:43:48.072Z,99744.75
2022-09-15T05:46:16.011Z,99747.81
2022-09-15T05:48:43.638Z,99754.59
2022-09-15T05:51:11.094Z,99751.69
2022-09-15T05:53:40.096Z,99752.47
2022-09-15T05:56:12.238Z,99754.59
2022-09-15T05:58:41.381Z,99748.38
2022-09-15T06:01:21.006Z,99743.63
2022-09-15T06:03:48.850Z,99753.53
2022-09-15T06:06:16.193Z,99747.75
2022-09-15T06:08:48.272Z,99756.75
2022-09-15T06:11:20.419Z,99749.34
2022-09-15T06:13:48.350Z,99750.31
2022-09-15T06:16:20.852Z,99756.25
2022-09-15T06:18:49.256Z,99760.69
2022-09-15T06:21:18.935Z,99754.09
2022-09-15T06:23:50.728Z,99758.75
2022-09-15T06:26:19.238Z,99758.97
2022-09-15T06:28:57.943Z,99762.63
2022-09-15T06:31:26.442Z,99761.56
2022-09-15T06:33:56.214Z,99761.19
2022-09-15T06:36:26.025Z,99760.75
2022-09-15T06:38:53.611Z,99760.59
2022-09-15T06:41:21.337Z,99759.19
2022-09-15T06:43:49.457Z,99764.41
2022-09-15T06:46:19.574Z,99762.97
2022-09-15T06:48:48.811Z,99760.28
2022-09-15T06:51:17.779Z,99757.44
2022-09-15T06:53:45.553Z,99760.22
2022-09-15T06:56:14.846Z,99764.44
2022-09-15T06:58:42.453Z,99772.03
2022-09-15T07:01:12.327Z,99777.63
2022-09-15T07:03:41.056Z,99779.44
2022-09-15T07:06:09.227Z,99783.88
2022-09-15T07:08:36.728Z,99779.06
2022-09-15T07:11:04.315Z,99787.28
2022-09-15T07:13:31.572Z,99784.50
2022-09-15T07:16:01.296Z,99783.88
2022-09-15T07:18:28.631Z,99789.00
2022-09-15T07:21:05.204Z,99780.78
2022-09-15T07:23:33.554Z,99780.88
2022-09-15T07:26:08.011Z,99788.16
2022-09-15T07:28:35.630Z,99786.81
2022-09-15T07:31:03.862Z,99790.69
2022-09-15T07:33:31.273Z,99793.69
2022-09-15T07:35:58.621Z,99794.59
2022-09-15T07:38:27.158Z,99797.25
2022-09-15T07:40:54.674Z,99808.97
2022-09-15T07:43:21.865Z,99807.03
2022-09-15T07:45:50.144Z,99801.50
2022-09-15T07:48:17.425Z,99797.59
2022-09-15T07:50:47.092Z,99801.47
2022-09-15T07:53:14.393Z,99793.69
2022-09-15T07:55:42.734Z,99800.09
2022-09-15T07:58:09.960Z,99803.38
2022-09-15T08:00:38.813Z,99804.19
2022-09-15T08:03:06.334Z,99814.78
2022-09-15T08:05:37.762Z,99813.09
2022-09-15T08:08:06.816Z,99817.69
2022-09-15T08:10:34.964Z,99815.47
2022-09-15T08:13:02.191Z,99820.97
2022-09-15T08:15:29.552Z,99825.47
2022-09-15T08:17:56.716Z,99827.00
2022-09-15T08:20:24.106Z,99815.41
2022-09-15T08:22:51.347Z,99818.41
2022-09-15T08:25:18.613Z,99819.31
2022-09-15T08:27:45.843Z,99823.84
2022-09-15T08:30:13.659Z,99820.88
2022-09-15T08:32:40.864Z,99828.28
2022-09-15T08:35:08.716Z,99829.84
2022-09-15T08:37:35.972Z,99827.50
2022-09-15T08:40:03.571Z,99838.63
2022-09-15T08:42:31.405Z,99840.66
2022-09-15T08:45:05.195Z,99850.09
2022-09-15T08:47:36.326Z,99850.16
2022-09-15T08:50:23.116Z,99837.81
2022-09-15T08:53:03.733Z,99834.16
2022-09-15T08:55:41.653Z,99840.81
2022-09-15T08:58:15.109Z,99833.22
2022-09-15T09:00:43.299Z,99831.50
2022-09-15T09:03:35.483Z,99825.00
2022-09-15T09:06:21.830Z,99832.16
2022-09-15T09:09:06.359Z,99831.09
2022-09-15T09:12:01.554Z,99817.03
2022-09-15T09:14:50.682Z,99821.28
2022-09-15T09:17:40.286Z,99824.72
2022-09-15T09:20:38.668Z,99831.63
2022-09-15T09:23:15.921Z,99829.25
2022-09-15T09:25:44.325Z,99825.56
2022-09-15T09:28:27.513Z,99818.56
2022-09-15T09:30:57.259Z,99821.06
2022-09-15T09:33:47.900Z,99817.50
2022-09-15T09:36:15.428Z,99815.41
2022-09-15T09:38:44.186Z,99811.09
2022-09-15T09:41:25.522Z,99817.59
2022-09-15T09:43:54.467Z,99824.22
2022-09-15T09:46:22.235Z,99817.03
2022-09-15T09:49:03.567Z,99815.25
2022-09-15T09:51:37.210Z,99814.41
2022-09-15T09:54:06.502Z,99818.25
2022-09-15T09:56:35.340Z,99812.75
2022-09-15T09:59:03.516Z,99825.50
2022-09-15T10:01:31.117Z,99819.28
2022-09-15T10:04:19.035Z,99814.94
2022-09-15T10:06:46.681Z,99815.63
2022-09-15T10:09:18.624Z,99823.50
2022-09-15T10:12:00.135Z,99824.63
2022-09-15T10:14:30.431Z,99826.63
2022-09-15T10:17:06.731Z,99823.06
2022-09-15T10:19:45.228Z,99825.03
2022-09-15T10:22:31.601Z,99818.53
2022-09-15T10:25:00.586Z,99815.03
2022-09-15T10:27:35.676Z,99807.56
2022-09-15T10:30:15.099Z,99802.47
2022-09-15T10:32:43.253Z,99812.63
2022-09-15T10:35:11.437Z,99821.47
2022-09-15T10:38:02.269Z,99816.47
2022-09-15T10:41:00.070Z,99818.75
2022-09-15T10:43:54.614Z,99808.41
2022-09-15T10:46:39.210Z,99810.94
2022-09-15T10:49:29.191Z,99800.50
2022-09-15T10:52:10.801Z,99805.47
2022-09-15T10:54:55.847Z,99810.13
2022-09-15T10:57:36.541Z,99808.16
2022-09-15T11:00:11.951Z,99803.88
2022-09-15T11:03:03.868Z,99814.44
2022-09-15T11:05:42.331Z,99805.31
2022-09-15T11:08:31.952Z,99814.41
2022-09-15T11:11:15.766Z,99809.16
2022-09-15T11:13:53.174Z,99810.63
2022-09-15T11:16:41.128Z,99804.34
2022-09-15T11:19:29.645Z,99805.41
2022-09-15T11:22:01.323Z,99804.81
2022-09-15T11:24:47.977Z,99799.22
2022-09-15T11:27:26.268Z,99804.72
2022-09-15T11:30:31.041Z,99806.50
2022-09-15T11:33:07.417Z,99804.50
2022-09-15T11:35:40.515Z,99802.19
2022-09-15T11:38:29.351Z,99806.50
2022-09-15T11:41:17.469Z,99808.41
2022-09-15T11:44:17.126Z,99812.94
2022-09-15T11:47:21.967Z,99813.84
2022-09-15T11:49:55.161Z,99806.28
2022-09-15T11:52:40.342Z,99810.00
2022-09-15T11:55:43.018Z,99808.09
2022-09-15T11:58:21.837Z,99808.47
2022-09-15T12:01:03.495Z,99814.88
2022-09-15T12:03:38.103Z,99816.22
2022-09-15T12:06:13.425Z,99813.88
2022-09-15T12:08:44.400Z,99815.59
2022-09-15T12:11:21.441Z,99814.50
2022-09-15T12:13:49.130Z,99810.88
2022-09-15T12:16:17.073Z,99802.66
2022-09-15T12:19:02.132Z,99806.78
2022-09-15T12:22:04.529Z,99809.53
2022-09-15T12:24:42.169Z,99814.63
2022-09-15T12:27:15.958Z,99818.31
2022-09-15T12:29:55.523Z,99815.28
2022-09-15T12:32:35.421Z,99811.75
2022-09-15T12:35:18.002Z,99807.22
2022-09-15T12:37:54.734Z,99807.94
2022-09-15T12:40:35.522Z,99812.59
2022-09-15T12:43:04.672Z,99823.47
2022-09-15T12:45:33.571Z,99822.63
2022-09-15T12:51:14.380Z,99824.75
2022-09-15T12:53:55.700Z,99821.50
2022-09-15T12:56:28.029Z,99819.84
2022-09-15T13:01:51.357Z,99817.75
2022-09-15T13:04:56.532Z,99814.22
2022-09-15T13:07:33.469Z,99810.13
2022-09-15T13:10:10.797Z,99811.69
2022-09-15T13:12:43.386Z,99806.91
2022-09-15T13:15:14.913Z,99802.56
2022-09-15T13:17:44.584Z,99810.59
2022-09-15T13:20:18.019Z,99811.84
2022-09-15T13:22:49.297Z,99807.06
2022-09-15T13:25:19.991Z,99800.84
2022-09-15T13:27:50.633Z,99798.88
2022-09-15T13:30:39.734Z,99806.34
2022-09-15T13:33:10.871Z,99803.94
2022-09-15T13:36:13.280Z,99799.69
2022-09-15T13:39:05.617Z,99796.59
2022-09-15T13:41:51.757Z,99794.47
2022-09-15T13:44:46.087Z,99797.44
2022-09-15T13:47:18.615Z,99785.88
2022-09-15T13:50:09.744Z,99786.84
2022-09-15T13:52:55.086Z,99785.16
2022-09-15T13:55:28.385Z,99783.34
2022-09-15T14:00:49.321Z,99779.56
2022-09-15T14:03:21.301Z,99779.72
2022-09-15T14:05:51.200Z,99775.38
2022-09-15T14:08:23.113Z,99772.59
2022-09-15T14:11:05.550Z,99768.75
2022-09-15T14:13:36.241Z,99770.47
2022-09-15T14:16:23.787Z,99772.03
2022-09-15T14:18:53.135Z,99766.09
2022-09-15T14:21:23.136Z,99770.03
2022-09-15T14:23:52.367Z,99779.88
2022-09-15T14:26:26.121Z,99781.53
2022-09-15T14:28:59.816Z,99773.00
2022-09-15T14:31:49.543Z,99779.44
2022-09-15T14:34:51.779Z,99785.72
2022-09-15T14:37:29.426Z,99772.06
2022-09-15T14:39:59.247Z,99772.88
2022-09-15T14:42:32.498Z,99780.84
2022-09-15T14:46:02.363Z,99768.13
2022-09-15T14:48:28.422Z,99769.19
2022-09-15T14:51:09.069Z,99776.28
2022-09-15T14:53:41.189Z,99764.59
2022-09-15T14:56:23.585Z,99775.09
2022-09-15T14:58:57.321Z,99769.88
2022-09-15T15:01:37.066Z,99773.25
2022-09-15T15:04:19.892Z,99772.38
2022-09-15T15:07:10.152Z,99769.19
2022-09-15T15:09:39.847Z,99767.50
2022-09-15T15:12:13.147Z,99784.81
2022-09-15T15:14:44.063Z,99772.13
2022-09-15T15:17:24.215Z,99769.41
2022-09-15T15:19:59.384Z,99772.22
2022-09-15T15:22:27.425Z,99770.63
2022-09-15T15:24:54.820Z,99765.75
2022-09-15T15:27:34.350Z,99765.31
2022-09-15T15:30:30.934Z,99777.09
2022-09-15T15:33:05.447Z,99774.63
2022-09-15T15:35:33.572Z,99779.25
2022-09-15T15:38:19.456Z,99773.22
2022-09-15T15:47:13.142Z,99810.88
2022-09-15T15:50:02.359Z,99816.34
2022-09-15T15:52:29.595Z,99811.03
2022-09-15T15:54:56.851Z,99807.44
2022-09-15T15:57:40.015Z,99806.50
2022-09-15T16:00:53.358Z,99810.66
2022-09-15T16:03:21.858Z,99809.81
2022-09-15T16:05:54.454Z,99807.63
2022-09-15T16:18:53.708Z,99797.81
2022-09-15T16:21:37.054Z,99805.56
2022-09-15T16:24:11.827Z,99803.38
2022-09-15T16:26:39.705Z,99809.41
2022-09-15T16:29:07.752Z,99803.25
2022-09-15T16:31:36.386Z,99809.91
2022-09-15T16:34:04.185Z,99816.56
2022-09-15T16:36:37.658Z,99817.31
2022-09-15T16:39:11.636Z,99820.81
2022-09-15T16:41:41.443Z,99825.53
2022-09-15T16:44:27.577Z,99832.31
2022-09-15T16:46:55.039Z,99833.78
2022-09-15T16:49:23.529Z,99842.84
2022-09-15T16:51:51.850Z,99842.75
2022-09-15T16:54:21.509Z,99841.72
2022-09-15T16:56:48.825Z,99841.09
2022-09-15T16:59:16.266Z,99836.22
2022-09-15T17:01:43.922Z,99837.31
2022-09-15T17:04:16.693Z,99825.69
2022-09-15T17:06:44.270Z,99821.44
2022-09-15T17:09:13.928Z,99821.22
2022-09-15T17:11:42.484Z,99817.59
2022-09-15T17:14:14.053Z,99815.06
2022-09-15T17:16:41.627Z,99820.50
2022-09-15T17:19:08.851Z,99831.97
2022-09-15T17:21:36.503Z,99837.88
2022-09-15T17:24:03.962Z,99840.28
2022-09-15T17:26:31.802Z,99833.44
2022-09-15T17:28:59.096Z,99841.88
2022-09-15T17:31:28.908Z,99832.56
2022-09-15T17:33:58.118Z,99827.94
2022-09-15T17:36:26.544Z,99832.13
2022-09-15T17:38:53.968Z,99830.34
2022-09-15T17:41:24.558Z,99836.94
2022-09-15T17:43:52.039Z,99835.69
2022-09-15T17:46:19.894Z,99836.09
2022-09-15T17:48:48.607Z,99837.47
2022-09-15T17:51:22.240Z,99838.44
2022-09-15T17:54:37.638Z,99836.91
2022-09-15T18:00:14.777Z,99840.56
2022-09-15T18:02:48.665Z,99834.63
2022-09-15T18:05:31.649Z,99839.19
2022-09-15T18:08:11.353Z,99850.56
2022-09-15T18:10:40.641Z,99847.28
2022-09-15T18:13:15.605Z,99839.16
2022-09-15T18:15:43.641Z,99841.88
2022-09-15T18:18:14.981Z,99845.41
2022-09-15T18:20:42.546Z,99845.09
2022-09-15T18:23:14.881Z,99844.25
2022-09-15T18:25:42.702Z,99848.53
2022-09-15T18:28:10.058Z,99851.19
2022-09-15T18:30:43.218Z,99853.72
2022-09-15T18:33:16.706Z,99853.50
2022-09-15T18:35:44.992Z,99844.25
2022-09-15T18:38:13.382Z,99854.63
2022-09-15T18:40:51.579Z,99863.75
2022-09-15T18:43:21.493Z,99868.63
2022-09-15T18:45:49.725Z,99857.97
2022-09-15T18:48:26.895Z,99862.00
2022-09-15T18:50:55.220Z,99862.34
2022-09-15T18:53:23.326Z,99861.78
2022-09-15T18:55:51.100Z,99858.13
2022-09-15T18:58:20.417Z,99872.34
2022-09-15T19:00:48.559Z,99863.75
2022-09-15T19:03:16.276Z,99859.00
2022-09-15T19:05:43.591Z,99869.97
2022-09-15T19:08:11.570Z,99866.69
2022-09-15T19:10:41.656Z,99869.97
2022-09-15T19:13:11.484Z,99868.25
2022-09-15T19:15:43.926Z,99869.53
2022-09-15T19:18:11.421Z,99870.38
2022-09-15T19:20:38.851Z,99870.38
2022-09-15T19:23:07.692Z,99863.38
2022-09-15T19:25:35.325Z,99862.09
2022-09-15T19:28:06.302Z,99864.03
2022-09-15T19:30:44.621Z,99869.34
2022-09-15T19:33:20.332Z,99867.81
2022-09-15T19:35:56.277Z,99867.31
2022-09-15T19:38:36.300Z,99861.25
2022-09-15T19:41:16.141Z,99872.91
2022-09-15T19:43:54.080Z,99873.34
2022-09-15T19:46:25.372Z,99875.34
2022-09-15T19:48:58.347Z,99874.44
2022-09-15T19:51:26.339Z,99869.97
2022-09-15T19:53:55.839Z,99868.16
2022-09-15T19:56:26.159Z,99863.41
2022-09-15T19:58:56.206Z,99857.84
2022-09-15T20:01:25.906Z,99859.56
2022-09-15T20:03:54.692Z,99866.50
2022-09-15T20:06:22.312Z,99872.44
2022-09-15T20:08:53.415Z,99875.91
2022-09-15T20:11:22.763Z,99873.72
2022-09-15T20:13:50.201Z,99886.41
2022-09-15T20:16:19.037Z,99884.88
2022-09-15T20:18:48.060Z,99887.53
2022-09-15T20:21:32.418Z,99889.22
2022-09-15T20:24:01.717Z,99892.00
2022-09-15T20:26:31.602Z,99884.75
2022-09-15T20:29:02.989Z,99899.19
2022-09-15T20:31:36.053Z,99892.78
2022-09-15T20:34:03.394Z,99891.25
2022-09-15T20:36:36.565Z,99882.66
2022-09-15T20:39:09.340Z,99882.28
2022-09-15T20:41:37.238Z,99890.03
2022-09-15T20:44:06.143Z,99886.31
2022-09-15T20:46:50.639Z,99888.97
2022-09-15T20:49:18.120Z,99881.75
2022-09-15T20:51:45.455Z,99885.88
2022-09-15T20:54:12.922Z,99893.72
2022-09-15T20:56:40.359Z,99887.97
2022-09-15T20:59:10.530Z,99886.88
2022-09-15T21:01:39.145Z,99895.78
2022-09-15T21:04:08.952Z,99891.41
2022-09-15T21:06:36.604Z,99886.81
2022-09-15T21:09:05.213Z,99889.19
2022-09-15T21:11:32.864Z,99885.84
2022-09-15T21:14:00.338Z,99882.22
2022-09-15T21:16:28.722Z,99889.03
2022-09-15T21:18:57.593Z,99893.84
2022-09-15T21:21:27.306Z,99895.00
2022-09-15T21:24:01.179Z,99885.97
2022-09-15T21:26:30.799Z,99889.56
2022-09-15T21:28:58.076Z,99891.38
2022-09-15T21:31:35.525Z,99897.72
2022-09-15T21:34:02.789Z,99894.03
2022-09-15T21:36:31.872Z,99894.88
2022-09-15T21:39:06.290Z,99894.59
2022-09-15T21:41:33.562Z,99899.66
2022-09-15T21:44:01.176Z,99906.47
2022-09-15T21:46:30.211Z,99911.53
2022-09-15T21:48:58.840Z,99907.06
2022-09-15T21:51:33.673Z,99913.16
2022-09-15T21:54:01.275Z,99921.59
2022-09-15T21:56:31.300Z,99917.53
2022-09-15T21:59:01.204Z,99924.84
2022-09-15T22:01:30.750Z,99920.50
2022-09-15T22:04:05.738Z,99925.81
2022-09-15T22:06:40.881Z,99931.19
2022-09-15T22:09:10.399Z,99935.63
2022-09-15T22:11:37.821Z,99944.53
2022-09-15T22:14:09.834Z,99939.78
2022-09-15T22:16:38.892Z,99940.88
2022-09-15T22:19:09.763Z,99946.94
2022-09-15T22:21:41.666Z,99948.47
2022-09-15T22:24:11.241Z,99939.38
2022-09-15T22:26:38.512Z,99949.31
2022-09-15T22:29:06.554Z,99951.78
2022-09-15T22:31:34.158Z,99946.28
2022-09-15T22:34:01.536Z,99949.72
2022-09-15T22:36:30.395Z,99952.47
2022-09-15T22:39:05.341Z,99947.44
2022-09-15T22:41:35.227Z,99953.19
2022-09-15T22:44:03.238Z,99946.69
2022-09-15T22:46:30.571Z,99957.34
2022-09-15T22:48:58.536Z,99949.59
2022-09-15T22:51:25.878Z,99951.66
2022-09-15T22:53:54.733Z,99947.63
2022-09-15T22:56:23.364Z,99955.94
2022-09-15T22:58:52.903Z,99955.66
2022-09-15T23:01:22.610Z,99955.19
2022-09-15T23:03:51.521Z,99946.78
2022-09-15T23:06:19.764Z,99948.84
2022-09-15T23:08:51.714Z,99955.81
2022-09-15T23:11:19.194Z,99950.03
2022-09-15T23:13:48.529Z,99941.19
2022-09-15T23:16:16.283Z,99947.22
2022-09-15T23:18:43.673Z,99956.63
2022-09-15T23:21:12.276Z,99944.47
2022-09-15T23:23:41.429Z,99952.28
2022-09-15T23:26:10.273Z,99950.88
2022-09-15T23:28:39.089Z,99950.34
2022-09-15T23:31:06.822Z,99946.31
2022-09-15T23:33:37.468Z,99953.09
2022-09-15T23:36:07.254Z,99945.63
2022-09-15T23:38:38.846Z,99946.00
2022-09-15T23:41:07.184Z,99941.53
2022-09-15T23:43:34.853Z,99950.59
2022-09-15T23:46:02.097Z,99950.78
2022-09-15T23:48:31.512Z,99945.84
2022-09-15T23:50:59.086Z,99948.56
2022-09-15T23:53:26.725Z,99953.78
2022-09-15T23:55:57.115Z,99948.66
2022-09-15T23:58:24.906Z,99948.16
